Vremea acum in Calafat - Romania

Vrei sa afli care e starea vremii acum in Dolj - Romania? Dorim sa iti furnizam starea vremii pentru Dolj - Romania. Starea vremii Dolj - Romania pentru astazi.

Vremea acum in Calafat

Temperatura: 11.4 °C

Este: Senin
Se simte ca: 10.6 °C
Innorat: 7 %
Precipitatii: 0 %
Presiune atmosferica: 1017 hPa
Umiditate: 67%
Vizibilitate: 10 km
Vantul bate din WNW cu 8.3 km/h

Evolutia vremii in Calafat pe ore

Ora: 04:00
Senin
Temperatura: 11.4°C
Sansa de precipitatii: 0%
Ora Descriere Temp Se simte Precipitatii Umiditate Vant
00:00Senin13.3°12.4°0%64%WSW 11.5 KM/H
01:00Senin12.9°12°0%64%W 10.4 KM/H
02:00Senin12.3°11.5°0%65%W 9.4 KM/H
03:00Senin11.8°11°0%66%WNW 8.6 KM/H
04:00Senin11.4°10.6°0%67%WNW 8.3 KM/H
05:00Senin11.2°10.5°0%69%WNW 7.6 KM/H
06:00Senin10.7°10.1°0%71%WNW 6.8 KM/H
07:00Senin11.1°10.8°0%72%WNW 6.1 KM/H
08:00Senin13.6°13.9°0%66%W 4.7 KM/H
09:00Senin15.8°15.8°0%59%W 5 KM/H
10:00Senin18.1°18.2°0%53%W 3.6 KM/H
11:00Senin20.3°20.3°0%48%WSW 0 KM/H
12:00Senin22.1°24.3°0%44%SE 3.2 KM/H
13:00Senin23.2°24.4°0%40%SSE 6.1 KM/H
14:00Senin24.1°24.7°0%37%SSE 9 KM/H
15:00Senin24.9°25°0%35%SSE 9.7 KM/H
16:00Senin25.2°25.1°0%33%SSE 10.1 KM/H
17:00Senin25°25°0%34%SSE 11.5 KM/H
18:00Senin24.4°24.9°0%39%SSE 11.9 KM/H
19:00Senin22.7°24.6°0%50%SSE 11.2 KM/H
20:00Senin19.5°19.5°0%59%SSE 12.2 KM/H
21:00Senin17.4°17.4°0%61%SSE 11.9 KM/H
22:00Senin16.3°16.4°0%62%SSE 10.8 KM/H
23:00Senin15.6°15.6°0%63%SSE 9.7 KM/H




tutorials